createdAt,value
2018-03-27T00:00:33.979Z,71.70
2018-03-27T00:03:01.539Z,71.60
2018-03-27T00:05:29.788Z,71.60
2018-03-27T00:07:57.428Z,71.40
2018-03-27T00:10:25.072Z,71.30
2018-03-27T00:12:52.654Z,71.40
2018-03-27T00:15:20.430Z,71.70
2018-03-27T00:17:50.795Z,71.70
2018-03-27T00:20:18.566Z,71.60
2018-03-27T00:22:46.958Z,71.60
2018-03-27T00:25:15.295Z,71.50
2018-03-27T00:27:55.253Z,71.50
2018-03-27T00:30:34.589Z,71.30
2018-03-27T00:33:14.887Z,71.50
2018-03-27T00:35:56.430Z,71.50
2018-03-27T00:38:35.979Z,71.60
2018-03-27T00:41:03.676Z,71.50
2018-03-27T00:43:31.299Z,71.30
2018-03-27T00:46:00.907Z,72.00
2018-03-27T00:48:28.527Z,71.40
2018-03-27T00:50:56.460Z,71.50
2018-03-27T00:53:24.888Z,71.40
2018-03-27T00:55:53.374Z,71.40
2018-03-27T00:58:22.235Z,71.00
2018-03-27T01:00:54.662Z,71.00
2018-03-27T01:03:24.211Z,70.90
2018-03-27T01:05:52.820Z,71.00
2018-03-27T01:08:20.452Z,70.70
2018-03-27T01:10:49.322Z,70.60
2018-03-27T01:13:16.966Z,70.40
2018-03-27T01:15:44.852Z,70.40
2018-03-27T01:18:12.463Z,70.30
2018-03-27T01:20:40.081Z,70.50
2018-03-27T01:23:07.780Z,70.40
2018-03-27T01:25:37.179Z,70.40
2018-03-27T01:28:05.556Z,70.50
2018-03-27T01:30:33.879Z,70.40
2018-03-27T01:33:02.438Z,70.30
2018-03-27T01:35:30.545Z,70.40
2018-03-27T01:37:58.210Z,70.20
2018-03-27T01:40:26.557Z,70.40
2018-03-27T01:42:54.696Z,70.40
2018-03-27T01:45:23.130Z,70.60
2018-03-27T01:47:52.143Z,70.40
2018-03-27T01:50:21.217Z,70.50
2018-03-27T01:52:48.850Z,70.50
2018-03-27T01:55:17.512Z,70.30
2018-03-27T01:57:45.163Z,70.20
2018-03-27T02:00:13.527Z,70.40
2018-03-27T02:02:44.089Z,70.50
2018-03-27T02:05:12.538Z,70.60
2018-03-27T02:07:40.164Z,70.60
2018-03-27T02:10:10.780Z,70.40
2018-03-27T02:12:44.417Z,70.20
2018-03-27T02:15:18.613Z,70.50
2018-03-27T02:17:53.035Z,70.40
2018-03-27T02:20:29.557Z,70.40
2018-03-27T02:23:02.216Z,70.40
2018-03-27T02:25:29.868Z,70.50
2018-03-27T02:27:57.483Z,70.60
2018-03-27T02:30:26.171Z,70.60
2018-03-27T02:32:54.439Z,70.40
2018-03-27T02:35:24.351Z,71.10
2018-03-27T02:37:53.167Z,70.40
2018-03-27T02:40:22.220Z,70.60
2018-03-27T02:42:50.623Z,71.30
2018-03-27T02:45:18.509Z,70.70
2018-03-27T02:47:46.124Z,70.80
2018-03-27T02:50:13.719Z,71.10
2018-03-27T02:52:42.182Z,71.40
2018-03-27T02:55:09.816Z,71.40
2018-03-27T02:57:37.380Z,71.80
2018-03-27T03:00:06.772Z,71.70
2018-03-27T03:02:35.093Z,72.20
2018-03-27T03:05:05.753Z,72.10
2018-03-27T03:07:34.456Z,72.30
2018-03-27T03:10:03.325Z,72.40
2018-03-27T03:12:31.734Z,72.00
2018-03-27T03:15:00.244Z,72.00
2018-03-27T03:17:28.885Z,72.00
2018-03-27T03:19:56.704Z,72.40
2018-03-27T03:22:25.521Z,72.40
2018-03-27T03:24:54.750Z,72.40
2018-03-27T03:27:23.987Z,72.60
2018-03-27T03:29:56.102Z,72.70
2018-03-27T03:32:24.787Z,72.30
2018-03-27T03:34:54.651Z,72.80
2018-03-27T03:37:23.232Z,72.30
2018-03-27T03:39:54.660Z,72.60
2018-03-27T03:42:24.396Z,72.00
2018-03-27T03:44:54.387Z,72.00
2018-03-27T03:47:22.589Z,71.90
2018-03-27T04:27:47.432Z,74.30
2018-03-27T04:30:15.372Z,74.20
2018-03-27T04:32:43.924Z,74.30
2018-03-27T04:35:12.325Z,74.50
2018-03-27T04:37:40.676Z,74.50
2018-03-27T04:40:08.264Z,74.50
2018-03-27T04:42:35.936Z,74.30
2018-03-27T04:45:04.992Z,73.30
2018-03-27T04:47:32.737Z,73.20
2018-03-27T04:50:02.436Z,73.20
2018-03-27T04:52:31.823Z,72.80
2018-03-27T04:55:00.212Z,72.90
2018-03-27T04:57:27.822Z,72.70
2018-03-27T04:59:55.402Z,72.60
2018-03-27T05:02:23.026Z,73.00
2018-03-27T05:04:50.782Z,73.20
2018-03-27T05:07:19.410Z,73.90
2018-03-27T05:09:46.979Z,73.90
2018-03-27T05:12:15.702Z,74.20
2018-03-27T05:14:43.829Z,74.10
2018-03-27T05:17:12.684Z,74.20
2018-03-27T05:19:40.292Z,74.10
2018-03-27T05:22:07.854Z,74.10
2018-03-27T05:24:35.436Z,74.50
2018-03-27T05:27:03.818Z,74.80
2018-03-27T05:29:33.218Z,75.00
2018-03-27T05:32:00.807Z,75.00
2018-03-27T05:34:28.880Z,74.80
2018-03-27T05:36:57.228Z,76.10
2018-03-27T05:39:24.835Z,75.60
2018-03-27T05:41:52.477Z,75.00
2018-03-27T05:44:20.106Z,75.10
2018-03-27T05:46:47.688Z,75.10
2018-03-27T05:49:15.636Z,74.70
2018-03-27T05:51:43.914Z,75.20
2018-03-27T05:54:12.083Z,74.80
2018-03-27T05:56:40.103Z,75.10
2018-03-27T05:59:07.956Z,75.10
2018-03-27T06:01:37.391Z,75.20
2018-03-27T06:04:05.023Z,75.20
2018-03-27T06:06:32.775Z,75.80
2018-03-27T06:09:00.325Z,75.80
2018-03-27T06:11:27.961Z,75.70
2018-03-27T06:13:55.524Z,74.60
2018-03-27T06:16:25.136Z,74.20
2018-03-27T06:18:52.772Z,74.80
2018-03-27T06:21:20.358Z,75.10
2018-03-27T06:23:47.912Z,75.10
2018-03-27T06:26:16.382Z,75.40
2018-03-27T06:28:44.688Z,75.10
2018-03-27T06:31:12.716Z,75.10
2018-03-27T06:33:40.326Z,75.30
2018-03-27T06:36:08.675Z,75.80
2018-03-27T06:38:37.270Z,75.90
2018-03-27T06:41:05.700Z,76.50
2018-03-27T06:43:37.159Z,76.60
2018-03-27T06:46:04.768Z,76.30
2018-03-27T06:48:32.523Z,75.80
2018-03-27T06:51:01.114Z,75.60
2018-03-27T06:53:28.706Z,75.40
2018-03-27T06:55:56.434Z,75.20
2018-03-27T06:58:24.068Z,75.30
2018-03-27T07:00:52.786Z,75.60
2018-03-27T07:03:20.396Z,75.90
2018-03-27T07:05:48.264Z,76.30
2018-03-27T07:08:15.863Z,76.80
2018-03-27T07:10:44.219Z,76.50
2018-03-27T07:13:12.697Z,76.60
2018-03-27T07:15:40.260Z,76.70
2018-03-27T07:18:08.927Z,77.10
2018-03-27T07:20:36.547Z,77.70
2018-03-27T07:23:05.181Z,77.70
2018-03-27T07:25:33.639Z,78.50
2018-03-27T07:28:02.019Z,78.10
2018-03-27T07:30:29.586Z,78.10
2018-03-27T07:32:57.244Z,77.80
2018-03-27T07:35:24.922Z,77.70
2018-03-27T07:37:52.580Z,77.70
2018-03-27T07:40:21.277Z,77.10
2018-03-27T07:42:48.960Z,77.10
2018-03-27T07:45:17.719Z,76.20
2018-03-27T07:47:45.365Z,76.80
2018-03-27T07:50:13.655Z,75.90
2018-03-27T07:52:42.669Z,75.30
2018-03-27T07:55:10.311Z,75.30
2018-03-27T07:57:39.053Z,74.50
2018-03-27T08:00:07.402Z,75.10
2018-03-27T08:02:35.888Z,74.50
2018-03-27T08:05:04.256Z,73.60
2018-03-27T08:07:31.906Z,73.60
2018-03-27T08:09:59.526Z,72.50
2018-03-27T08:12:27.994Z,70.30
2018-03-27T08:14:55.568Z,70.20
2018-03-27T08:17:24.131Z,68.60
2018-03-27T08:19:51.788Z,68.60
2018-03-27T08:22:19.568Z,67.10
2018-03-27T08:24:48.276Z,66.90
2018-03-27T08:27:17.599Z,66.10
2018-03-27T08:29:45.210Z,66.10
2018-03-27T08:32:14.057Z,62.80
2018-03-27T08:34:42.293Z,62.80
2018-03-27T08:37:09.963Z,63.70
2018-03-27T08:39:38.357Z,63.30
2018-03-27T08:42:06.012Z,63.30
2018-03-27T08:44:33.674Z,61.90
2018-03-27T08:47:01.673Z,61.10
2018-03-27T08:49:29.283Z,57.90
2018-03-27T08:51:56.876Z,57.00
2018-03-27T08:54:25.908Z,58.60
2018-03-27T08:56:55.212Z,56.70
2018-03-27T08:59:24.493Z,54.80
2018-03-27T09:01:52.084Z,54.80
2018-03-27T09:04:19.669Z,55.40
2018-03-27T09:06:47.255Z,52.80
2018-03-27T09:09:14.867Z,52.50
2018-03-27T09:11:43.085Z,49.70
2018-03-27T09:14:12.689Z,49.30
2018-03-27T09:16:41.709Z,52.50
2018-03-27T09:19:09.452Z,52.40
2018-03-27T09:21:37.003Z,53.00
2018-03-27T09:24:04.593Z,54.60
2018-03-27T09:26:32.984Z,57.00
2018-03-27T09:29:00.677Z,57.00
2018-03-27T09:31:29.319Z,58.40
2018-03-27T09:33:56.893Z,59.30
2018-03-27T09:36:25.418Z,58.70
2018-03-27T09:38:52.975Z,56.40
2018-03-27T09:41:20.610Z,56.20
2018-03-27T09:43:48.337Z,55.50
2018-03-27T09:46:15.941Z,51.60
2018-03-27T09:48:43.980Z,48.90
2018-03-27T09:51:13.246Z,46.90
2018-03-27T09:53:40.812Z,46.00
2018-03-27T09:56:08.533Z,47.30
2018-03-27T09:58:36.092Z,50.20
2018-03-27T10:01:09.783Z,51.40
2018-03-27T10:03:38.415Z,51.50
2018-03-27T10:06:05.983Z,51.20
2018-03-27T10:08:34.724Z,47.00
2018-03-27T10:11:02.301Z,46.90
2018-03-27T10:13:30.615Z,42.00
2018-03-27T10:15:58.302Z,42.00
2018-03-27T10:18:26.652Z,36.90
2018-03-27T10:20:54.217Z,36.80
2018-03-27T10:23:21.849Z,38.00
2018-03-27T10:25:50.166Z,33.00
2018-03-27T10:28:17.747Z,33.00
2018-03-27T10:30:46.196Z,29.80
2018-03-27T10:33:13.745Z,29.80
2018-03-27T10:35:41.584Z,28.90
2018-03-27T10:38:10.259Z,27.20
2018-03-27T10:40:38.594Z,27.60
2018-03-27T10:43:06.206Z,27.70
2018-03-27T10:45:33.837Z,28.20
2018-03-27T10:48:01.422Z,27.70
2018-03-27T10:50:29.002Z,27.70
2018-03-27T10:52:56.583Z,29.00
2018-03-27T10:55:24.980Z,30.60
2018-03-27T10:57:53.501Z,30.50
2018-03-27T11:00:21.177Z,30.80
2018-03-27T11:02:48.757Z,29.90
2018-03-27T11:05:16.317Z,29.10
2018-03-27T11:07:45.943Z,30.80
2018-03-27T11:10:13.720Z,31.00
2018-03-27T11:12:41.644Z,30.50
2018-03-27T11:15:10.330Z,28.60
2018-03-27T11:17:37.878Z,27.70
2018-03-27T11:20:05.516Z,27.50
2018-03-27T11:22:33.235Z,25.00
2018-03-27T11:25:00.800Z,25.00
2018-03-27T11:27:28.445Z,26.50
2018-03-27T11:29:56.069Z,27.70
2018-03-27T11:32:23.790Z,29.10
2018-03-27T11:34:51.500Z,28.70
2018-03-27T11:37:19.972Z,31.60
2018-03-27T11:39:49.286Z,33.20
2018-03-27T11:42:18.058Z,32.70
2018-03-27T11:44:45.649Z,32.60
2018-03-27T11:47:14.761Z,32.20
2018-03-27T11:49:42.747Z,32.40
2018-03-27T11:52:11.656Z,34.10
2018-03-27T11:54:40.431Z,35.20
2018-03-27T11:57:07.963Z,35.20
2018-03-27T11:59:36.331Z,34.80
2018-03-27T12:02:04.714Z,32.40
2018-03-27T12:04:33.631Z,32.30
2018-03-27T12:07:01.211Z,32.00
2018-03-27T12:09:30.707Z,31.60
2018-03-27T12:11:59.039Z,32.90
2018-03-27T12:14:26.609Z,32.80
2018-03-27T12:16:55.946Z,31.20
2018-03-27T12:19:23.523Z,31.20
2018-03-27T12:21:51.971Z,31.70
2018-03-27T12:24:19.580Z,31.70
2018-03-27T12:26:47.143Z,32.90
2018-03-27T12:29:14.692Z,33.30
2018-03-27T12:31:44.063Z,32.90
2018-03-27T12:34:12.361Z,32.80
2018-03-27T12:36:39.913Z,32.50
2018-03-27T12:39:08.312Z,33.40
2018-03-27T12:41:35.864Z,33.30
2018-03-27T12:44:03.546Z,33.40
2018-03-27T12:46:32.176Z,33.40
2018-03-27T12:48:59.785Z,32.60
2018-03-27T12:51:28.204Z,30.80
2018-03-27T12:53:55.847Z,30.90
2018-03-27T12:56:23.440Z,30.60
2018-03-27T12:58:51.193Z,30.50
2018-03-27T13:01:18.830Z,30.40
2018-03-27T13:03:47.194Z,30.70
2018-03-27T13:06:15.793Z,31.50
2018-03-27T13:08:43.790Z,31.50
2018-03-27T13:11:12.639Z,34.30
2018-03-27T13:13:41.706Z,34.40
2018-03-27T13:16:10.425Z,36.90
2018-03-27T13:18:38.015Z,38.20
2018-03-27T13:21:06.653Z,38.70
2018-03-27T13:23:34.303Z,38.70
2018-03-27T13:26:01.807Z,39.70
2018-03-27T13:28:30.523Z,39.50
2018-03-27T13:30:59.832Z,39.60
2018-03-27T13:33:27.418Z,39.60
2018-03-27T13:35:55.790Z,40.30
2018-03-27T13:38:23.428Z,40.20
2018-03-27T13:40:51.018Z,40.60
2018-03-27T13:43:19.008Z,41.30
2018-03-27T13:45:47.357Z,41.10
2018-03-27T13:48:15.747Z,41.00
2018-03-27T13:50:44.042Z,41.00
2018-03-27T13:53:12.824Z,41.60
2018-03-27T13:55:42.460Z,41.80
2018-03-27T13:58:12.607Z,41.80
2018-03-27T14:00:40.286Z,41.50
2018-03-27T14:03:07.889Z,40.30
2018-03-27T14:05:35.529Z,39.90
2018-03-27T14:08:03.116Z,39.00
2018-03-27T14:10:30.732Z,38.70
2018-03-27T14:12:59.820Z,40.10
2018-03-27T14:15:28.177Z,39.50
2018-03-27T14:17:55.928Z,39.50
2018-03-27T14:20:24.405Z,38.40
2018-03-27T14:22:52.723Z,38.40
2018-03-27T14:25:20.354Z,38.40
2018-03-27T14:27:47.975Z,38.30
2018-03-27T14:30:16.527Z,37.60
2018-03-27T14:32:45.233Z,37.30
2018-03-27T14:35:13.945Z,37.80
2018-03-27T14:37:42.265Z,37.80
2018-03-27T14:40:11.623Z,37.50
2018-03-27T14:42:39.245Z,37.50
2018-03-27T14:45:06.835Z,36.70
2018-03-27T14:47:34.414Z,36.80
2018-03-27T14:50:02.727Z,36.40
2018-03-27T14:52:30.331Z,36.50
2018-03-27T14:54:57.927Z,36.00
2018-03-27T14:57:25.529Z,35.90
2018-03-27T14:59:54.276Z,35.80
2018-03-27T15:02:22.782Z,38.50
2018-03-27T15:04:50.431Z,39.70
2018-03-27T15:07:19.521Z,40.50
2018-03-27T15:09:47.157Z,40.40
2018-03-27T15:12:14.803Z,41.00
2018-03-27T15:14:43.122Z,41.50
2018-03-27T15:17:12.222Z,42.20
2018-03-27T15:19:39.793Z,42.20
2018-03-27T15:22:08.560Z,42.70
2018-03-27T15:24:38.114Z,43.10
2018-03-27T15:27:06.748Z,42.50
2018-03-27T15:29:34.403Z,43.20
2018-03-27T15:32:02.027Z,43.20
2018-03-27T15:34:31.282Z,43.30
2018-03-27T15:36:58.941Z,43.40
2018-03-27T15:39:26.551Z,42.80
2018-03-27T15:41:55.111Z,39.30
2018-03-27T15:44:22.692Z,39.30
2018-03-27T15:46:50.345Z,38.60
2018-03-27T15:49:19.143Z,34.60
2018-03-27T15:51:46.862Z,34.60
2018-03-27T15:54:14.508Z,35.20
2018-03-27T15:56:43.007Z,35.50
2018-03-27T15:59:10.702Z,34.40
2018-03-27T16:01:40.174Z,34.40
2018-03-27T16:04:07.803Z,35.10
2018-03-27T16:06:35.412Z,35.70
2018-03-27T16:09:03.159Z,35.80
2018-03-27T16:11:30.774Z,35.90
2018-03-27T16:13:58.361Z,35.90
2018-03-27T16:16:26.089Z,37.10
2018-03-27T16:18:54.665Z,36.40
2018-03-27T16:21:24.441Z,37.30
2018-03-27T16:23:52.034Z,37.30
2018-03-27T16:26:19.639Z,37.20
2018-03-27T16:28:47.564Z,37.30
2018-03-27T16:31:15.195Z,38.00
2018-03-27T16:33:43.619Z,37.70
2018-03-27T16:36:11.658Z,37.70
2018-03-27T16:38:39.249Z,37.20
2018-03-27T16:41:06.853Z,37.40
2018-03-27T16:43:34.682Z,37.40
2018-03-27T16:46:02.838Z,37.50
2018-03-27T16:48:32.450Z,37.60
2018-03-27T16:51:00.364Z,37.80
2018-03-27T16:53:27.968Z,37.40
2018-03-27T16:55:56.343Z,37.90
2018-03-27T16:58:24.025Z,38.00
2018-03-27T17:00:51.583Z,37.80
2018-03-27T17:03:20.145Z,37.40
2018-03-27T17:05:47.741Z,36.90
2018-03-27T17:08:15.392Z,36.90
2018-03-27T17:10:44.008Z,37.00
2018-03-27T17:13:12.672Z,37.90
2018-03-27T17:15:41.566Z,38.30
2018-03-27T17:18:14.146Z,38.40
2018-03-27T17:20:42.779Z,38.40
2018-03-27T17:23:14.594Z,39.00
2018-03-27T17:25:42.617Z,39.10
2018-03-27T17:28:10.276Z,38.90
2018-03-27T17:30:37.856Z,38.80
2018-03-27T17:33:05.465Z,42.60
2018-03-27T17:35:33.047Z,43.10
2018-03-27T17:38:01.474Z,44.40
2018-03-27T17:40:30.363Z,45.40
2018-03-27T17:42:57.918Z,46.30
2018-03-27T17:45:26.717Z,46.80
2018-03-27T17:47:54.955Z,47.10
2018-03-27T17:50:23.634Z,47.30
2018-03-27T17:52:51.137Z,47.80
2018-03-27T17:55:18.718Z,47.80
2018-03-27T17:57:47.255Z,48.40
2018-03-27T18:00:15.832Z,49.10
2018-03-27T18:02:44.753Z,49.40
2018-03-27T18:05:13.104Z,49.50
2018-03-27T18:07:40.665Z,49.40
2018-03-27T18:10:08.409Z,49.90
2018-03-27T18:12:36.053Z,50.20
2018-03-27T18:15:03.651Z,50.10
2018-03-27T18:17:32.536Z,50.20
2018-03-27T18:20:00.943Z,50.00
2018-03-27T18:22:29.381Z,50.10
2018-03-27T18:24:57.777Z,50.30
2018-03-27T18:27:26.126Z,50.20
2018-03-27T18:29:54.756Z,50.20
2018-03-27T18:32:22.448Z,50.30
2018-03-27T18:34:50.015Z,50.40
2018-03-27T18:37:19.759Z,50.40
2018-03-27T18:39:48.123Z,50.30
2018-03-27T18:42:16.479Z,50.50
2018-03-27T18:44:45.033Z,50.00
2018-03-27T18:47:14.739Z,50.30
2018-03-27T18:49:42.771Z,50.30
2018-03-27T18:52:11.608Z,50.90
2018-03-27T18:54:40.158Z,52.00
2018-03-27T18:57:08.473Z,52.10
2018-03-27T18:59:36.100Z,52.10
2018-03-27T19:02:03.682Z,52.70
2018-03-27T19:04:31.315Z,52.50
2018-03-27T19:06:59.834Z,53.00
2018-03-27T19:09:27.400Z,53.40
2018-03-27T19:11:55.171Z,53.60
2018-03-27T19:14:22.803Z,53.50
2018-03-27T19:16:50.478Z,53.80
2018-03-27T19:19:18.791Z,53.50
2018-03-27T19:21:47.611Z,53.40
2018-03-27T19:24:16.151Z,53.70
2018-03-27T19:26:44.490Z,54.30
2018-03-27T19:29:12.895Z,54.30
2018-03-27T19:31:40.465Z,54.50
2018-03-27T19:34:08.059Z,55.00
2018-03-27T19:36:35.838Z,55.50
2018-03-27T19:39:03.461Z,55.90
2018-03-27T19:41:31.051Z,56.10
2018-03-27T19:43:59.591Z,56.40
2018-03-27T19:46:27.919Z,56.30
2018-03-27T19:48:55.487Z,56.30
2018-03-27T19:51:23.110Z,56.30
2018-03-27T19:53:50.695Z,56.40
2018-03-27T19:56:18.287Z,56.50
2018-03-27T19:58:46.641Z,57.00
2018-03-27T20:01:14.991Z,56.90
2018-03-27T20:03:43.561Z,56.90
2018-03-27T20:06:13.500Z,57.10
2018-03-27T20:08:41.760Z,57.10
2018-03-27T20:11:10.204Z,57.00
2018-03-27T20:13:38.628Z,56.80
2018-03-27T20:16:07.085Z,56.40
2018-03-27T20:18:35.293Z,56.40
2018-03-27T20:21:02.888Z,56.00
2018-03-27T20:23:31.249Z,56.20
2018-03-27T20:25:59.923Z,56.30
2018-03-27T20:28:28.260Z,56.20
2018-03-27T20:30:55.910Z,56.20
2018-03-27T20:33:23.963Z,55.60
2018-03-27T20:35:51.544Z,55.60
2018-03-27T20:38:19.090Z,55.60
2018-03-27T20:40:46.699Z,55.40
2018-03-27T20:43:14.268Z,55.30
2018-03-27T20:45:42.718Z,54.70
2018-03-27T20:48:12.560Z,52.60
2018-03-27T20:50:40.126Z,52.60
2018-03-27T20:53:07.696Z,52.50
2018-03-27T20:55:36.275Z,52.60
2018-03-27T20:58:03.860Z,52.60
2018-03-27T21:00:31.482Z,52.40
2018-03-27T21:02:59.161Z,52.40
2018-03-27T21:05:26.800Z,52.20
2018-03-27T21:07:54.400Z,51.90
2018-03-27T21:10:22.992Z,51.20
2018-03-27T21:12:50.558Z,51.40
2018-03-27T21:15:19.037Z,50.90
2018-03-27T21:17:47.029Z,51.40
2018-03-27T21:20:15.367Z,49.60
2018-03-27T21:22:44.650Z,49.90
2018-03-27T21:25:12.776Z,49.90
2018-03-27T21:27:40.365Z,49.70
2018-03-27T21:30:07.915Z,49.60
2018-03-27T21:32:36.466Z,49.60
2018-03-27T21:35:04.057Z,50.00
2018-03-27T21:37:31.638Z,49.30
2018-03-27T21:39:59.208Z,49.40
2018-03-27T21:42:27.694Z,49.00
2018-03-27T21:44:55.279Z,48.90
2018-03-27T21:47:24.062Z,49.10
2018-03-27T21:49:52.381Z,49.70
2018-03-27T21:52:19.968Z,49.70
2018-03-27T21:54:48.434Z,50.80
2018-03-27T21:57:16.774Z,51.60
2018-03-27T21:59:44.336Z,51.50
2018-03-27T22:02:14.070Z,52.20
2018-03-27T22:04:42.409Z,52.20
2018-03-27T22:07:10.305Z,53.50
2018-03-27T22:09:37.909Z,54.20
2018-03-27T22:12:05.488Z,55.20
2018-03-27T22:14:33.069Z,55.80
2018-03-27T22:17:01.791Z,57.10
2018-03-27T22:19:29.339Z,57.10
2018-03-27T22:21:56.946Z,57.60
2018-03-27T22:24:24.558Z,57.80
2018-03-27T22:26:54.787Z,58.70
2018-03-27T22:29:22.355Z,58.60
2018-03-27T22:31:50.109Z,58.60
2018-03-27T22:34:17.677Z,58.70
2018-03-27T22:36:45.243Z,59.10
2018-03-27T22:39:15.069Z,58.90
2018-03-27T22:41:43.532Z,58.90
2018-03-27T22:44:11.826Z,59.60
2018-03-27T22:46:40.194Z,60.70
2018-03-27T22:49:07.770Z,61.00
2018-03-27T22:51:35.329Z,61.70
2018-03-27T22:54:02.950Z,61.80
2018-03-27T22:56:30.611Z,62.50
2018-03-27T22:58:58.158Z,62.20
2018-03-27T23:01:26.055Z,63.10
2018-03-27T23:03:53.686Z,63.50
2018-03-27T23:06:21.317Z,63.50
2018-03-27T23:08:48.971Z,63.90
2018-03-27T23:11:17.326Z,64.00
2018-03-27T23:13:44.946Z,64.20
2018-03-27T23:16:13.463Z,64.80
2018-03-27T23:18:42.917Z,65.10
2018-03-27T23:21:10.484Z,65.20
2018-03-27T23:23:38.132Z,66.00
2018-03-27T23:26:05.731Z,66.80
2018-03-27T23:28:33.290Z,66.90
2018-03-27T23:31:01.889Z,67.30
2018-03-27T23:33:30.368Z,67.40
2018-03-27T23:35:59.433Z,68.10
2018-03-27T23:38:27.319Z,68.00
2018-03-27T23:40:55.644Z,68.20
2018-03-27T23:43:23.210Z,68.10
2018-03-27T23:45:50.812Z,67.70
2018-03-27T23:48:18.355Z,68.10
2018-03-27T23:50:45.931Z,69.30
2018-03-27T23:53:14.933Z,69.40
2018-03-27T23:55:43.506Z,69.60
2018-03-27T23:58:13.804Z,70.50
